Time;durP1;ratioP1;P1;durP2;ratioP2;P2;SDS_P1;SDS_P2;PMS_P1;PMS_P2;Temp;Humidity;BMP_temperature;BMP_pressure;BME280_temperature;BME280_humidity;BME280_pressure;Samples;Min_cycle;Max_cycle;Signal;HPM_P1;HPM_P2
2021/04/18 00:00:46;;;;;;;14.02;8.35;;;;;;;;;;5063703;28;20021;-66
2021/04/18 00:03:11;;;;;;;9.80;7.97;;;;;;;;;;5067097;28;20761;-66
2021/04/18 00:05:36;;;;;;;13.55;9.25;;;;;;;;;;5063853;28;20360;-66
2021/04/18 00:08:02;;;;;;;10.43;6.75;;;;;;;;;;5063605;28;20097;-66
2021/04/18 00:10:31;;;;;;;13.15;11.75;;;;;;;;;;5064207;28;20488;-66
2021/04/18 00:12:57;;;;;;;16.30;7.28;;;;;;;;;;5063636;28;20028;-66
2021/04/18 00:15:23;;;;;;;9.40;7.25;;;;;;;;;;5064059;28;20021;-66
2021/04/18 00:17:49;;;;;;;7.75;6.45;;;;;;;;;;5064275;28;20040;-66
2021/04/18 00:20:14;;;;;;;11.55;7.43;;;;;;;;;;5063376;28;20036;-66
2021/04/18 00:22:40;;;;;;;13.18;9.82;;;;;;;;;;5064439;28;20765;-66
2021/04/18 00:25:06;;;;;;;7.28;5.97;;;;;;;;;;5063928;28;20037;-66
2021/04/18 00:27:32;;;;;;;13.88;6.35;;;;;;;;;;5063865;28;20067;-66
2021/04/18 00:29:57;;;;;;;6.97;5.90;;;;;;;;;;5064061;28;20546;-66
2021/04/18 00:32:22;;;;;;;9.27;5.78;;;;;;;;;;5064082;28;20448;-66
2021/04/18 00:34:48;;;;;;;10.88;7.82;;;;;;;;;;5064055;28;20024;-66
2021/04/18 00:37:13;;;;;;;7.43;5.97;;;;;;;;;;5064334;28;20039;-66
2021/04/18 00:39:38;;;;;;;9.15;5.57;;;;;;;;;;5054014;28;20029;-66
2021/04/18 00:42:04;;;;;;;8.02;4.05;;;;;;;;;;5064414;28;20028;-66
2021/04/18 00:44:29;;;;;;;7.07;5.07;;;;;;;;;;5064366;28;20099;-66
2021/04/18 00:46:54;;;;;;;8.70;6.03;;;;;;;;;;5065169;28;20777;-66
2021/04/18 00:49:20;;;;;;;6.57;4.72;;;;;;;;;;5064724;28;20046;-66
2021/04/18 00:51:45;;;;;;;12.32;6.03;;;;;;;;;;5066608;28;20028;-66
2021/04/18 00:54:10;;;;;;;9.52;6.25;;;;;;;;;;5065686;28;20020;-66
2021/04/18 00:56:36;;;;;;;6.75;5.28;;;;;;;;;;5066651;28;20833;-66
2021/04/18 00:59:01;;;;;;;9.07;6.63;;;;;;;;;;5058940;28;20028;-66
2021/04/18 01:01:26;;;;;;;8.23;6.78;;;;;;;;;;5067019;28;20028;-66
2021/04/18 01:03:52;;;;;;;11.35;7.10;;;;;;;;;;5064348;28;20025;-66
2021/04/18 01:06:17;;;;;;;8.65;6.68;;;;;;;;;;5064459;28;20039;-66
2021/04/18 01:08:42;;;;;;;8.15;6.15;;;;;;;;;;5063731;28;20032;-66
2021/04/18 01:11:16;;;;;;;6.90;6.20;;;;;;;;;;5066243;28;20463;-66
2021/04/18 01:13:41;;;;;;;7.32;6.35;;;;;;;;;;5063923;28;20024;-66
2021/04/18 01:16:07;;;;;;;7.63;6.82;;;;;;;;;;5062692;28;20016;-66
2021/04/18 01:18:32;;;;;;;11.40;8.27;;;;;;;;;;5065692;28;20127;-66
2021/04/18 01:21:04;;;;;;;9.07;6.65;;;;;;;;;;5067341;28;20040;-67
2021/04/18 01:23:30;;;;;;;8.85;7.50;;;;;;;;;;5067976;28;20031;-66
2021/04/18 01:25:55;;;;;;;5.18;4.43;;;;;;;;;;5068680;28;20371;-66
2021/04/18 01:28:20;;;;;;;8.07;5.63;;;;;;;;;;5069236;28;20471;-66
2021/04/18 01:30:46;;;;;;;14.75;5.65;;;;;;;;;;5067344;28;20039;-66
2021/04/18 01:33:11;;;;;;;8.05;6.57;;;;;;;;;;5066042;28;20558;-66
2021/04/18 01:35:36;;;;;;;9.93;4.88;;;;;;;;;;5067670;28;20029;-66
2021/04/18 01:38:02;;;;;;;8.95;5.25;;;;;;;;;;5067268;28;20710;-66
2021/04/18 01:40:29;;;;;;;6.30;3.55;;;;;;;;;;5067777;28;20032;-66
2021/04/18 01:42:54;;;;;;;7.28;4.22;;;;;;;;;;5068534;28;20692;-66
2021/04/18 01:45:20;;;;;;;8.13;4.80;;;;;;;;;;5067697;28;20051;-67
2021/04/18 01:47:46;;;;;;;7.50;4.70;;;;;;;;;;5066835;28;20026;-66
2021/04/18 01:50:14;;;;;;;8.43;4.72;;;;;;;;;;5067198;28;20032;-66
2021/04/18 01:52:39;;;;;;;9.07;5.40;;;;;;;;;;5068217;28;20028;-66
2021/04/18 01:55:23;;;;;;;8.48;3.95;;;;;;;;;;5068370;28;20040;-66
2021/04/18 01:57:48;;;;;;;8.30;5.00;;;;;;;;;;5067207;28;20074;-66
2021/04/18 02:00:14;;;;;;;6.65;4.88;;;;;;;;;;5067051;28;20029;-66
2021/04/18 02:02:40;;;;;;;11.23;5.38;;;;;;;;;;5066765;28;20573;-66
2021/04/18 02:05:05;;;;;;;5.43;4.78;;;;;;;;;;5067024;28;20101;-66
2021/04/18 02:07:31;;;;;;;7.20;4.93;;;;;;;;;;5066868;28;20863;-66
2021/04/18 02:09:56;;;;;;;5.85;5.10;;;;;;;;;;5066656;28;20077;-66
2021/04/18 02:12:22;;;;;;;11.38;4.97;;;;;;;;;;5066652;28;20035;-66
2021/04/18 02:14:47;;;;;;;6.53;4.07;;;;;;;;;;5064761;28;20059;-67
2021/04/18 02:17:12;;;;;;;8.20;4.60;;;;;;;;;;5066981;28;20393;-66
2021/04/18 02:19:37;;;;;;;9.02;5.30;;;;;;;;;;5067556;28;20048;-66
2021/04/18 02:22:04;;;;;;;8.32;6.03;;;;;;;;;;5069376;28;20075;-66
2021/04/18 02:24:29;;;;;;;5.72;4.82;;;;;;;;;;5066863;28;20387;-66
2021/04/18 02:26:54;;;;;;;6.13;4.70;;;;;;;;;;5066921;28;20631;-66
2021/04/18 02:29:20;;;;;;;4.78;4.22;;;;;;;;;;5065652;28;20555;-66
2021/04/18 02:31:45;;;;;;;12.90;5.95;;;;;;;;;;5066772;28;20024;-66
2021/04/18 02:34:11;;;;;;;5.15;4.07;;;;;;;;;;5066310;28;20012;-66
2021/04/18 02:36:36;;;;;;;9.25;4.70;;;;;;;;;;5066145;28;20085;-66
2021/04/18 02:39:02;;;;;;;5.57;3.95;;;;;;;;;;5066358;28;20036;-66
2021/04/18 02:41:27;;;;;;;4.68;4.05;;;;;;;;;;5068751;28;20814;-66
2021/04/18 02:43:53;;;;;;;5.47;3.97;;;;;;;;;;5066435;28;20744;-66
2021/04/18 02:46:18;;;;;;;5.65;3.20;;;;;;;;;;5056655;28;20108;-66
2021/04/18 02:48:44;;;;;;;5.07;3.05;;;;;;;;;;5066506;28;20074;-66
2021/04/18 02:51:09;;;;;;;7.38;4.03;;;;;;;;;;5066376;28;20858;-67
2021/04/18 02:53:34;;;;;;;5.72;3.67;;;;;;;;;;5066027;28;20458;-66
2021/04/18 02:55:59;;;;;;;4.25;2.75;;;;;;;;;;5065773;28;20032;-66
2021/04/18 02:58:25;;;;;;;6.13;4.32;;;;;;;;;;5066122;28;20032;-66
2021/04/18 03:00:50;;;;;;;3.17;2.75;;;;;;;;;;5065607;28;20028;-66
2021/04/18 03:03:15;;;;;;;4.53;3.70;;;;;;;;;;5065434;28;20040;-66
2021/04/18 03:05:41;;;;;;;5.68;4.32;;;;;;;;;;5065981;28;20028;-66
2021/04/18 03:08:06;;;;;;;5.45;4.22;;;;;;;;;;5065605;28;20028;-66
2021/04/18 03:10:32;;;;;;;6.70;4.75;;;;;;;;;;5065976;28;20028;-66
2021/04/18 03:12:57;;;;;;;5.15;4.35;;;;;;;;;;5065263;28;20024;-66
2021/04/18 03:15:23;;;;;;;5.75;3.90;;;;;;;;;;5065214;28;20021;-66
2021/04/18 03:17:48;;;;;;;7.78;5.85;;;;;;;;;;5066039;28;20056;-66
2021/04/18 03:20:14;;;;;;;8.52;5.53;;;;;;;;;;5065316;28;20043;-66
2021/04/18 03:22:39;;;;;;;12.80;5.35;;;;;;;;;;5065779;28;20234;-66
2021/04/18 03:25:05;;;;;;;6.47;5.38;;;;;;;;;;5065030;28;20688;-66
2021/04/18 03:27:30;;;;;;;7.63;4.50;;;;;;;;;;5064986;28;20039;-66
2021/04/18 03:29:56;;;;;;;8.43;5.43;;;;;;;;;;5068380;28;20020;-66
2021/04/18 03:32:21;;;;;;;11.50;4.53;;;;;;;;;;5068359;28;20484;-66
2021/04/18 03:34:46;;;;;;;6.53;5.78;;;;;;;;;;5068436;28;20435;-66
2021/04/18 03:37:12;;;;;;;9.32;5.88;;;;;;;;;;5067128;28;20032;-66
2021/04/18 03:39:37;;;;;;;8.75;6.28;;;;;;;;;;5067872;28;20031;-66
2021/04/18 03:42:02;;;;;;;4.32;3.83;;;;;;;;;;5067440;28;20044;-66
2021/04/18 03:44:28;;;;;;;10.95;4.78;;;;;;;;;;5068254;28;20020;-66
2021/04/18 03:46:53;;;;;;;4.32;3.38;;;;;;;;;;5068717;28;20151;-66
2021/04/18 03:49:18;;;;;;;4.82;4.30;;;;;;;;;;5068377;28;20037;-66
2021/04/18 03:51:47;;;;;;;4.88;3.53;;;;;;;;;;5068425;28;20027;-66
2021/04/18 03:54:12;;;;;;;5.25;4.45;;;;;;;;;;5067901;28;20040;-66
2021/04/18 03:56:38;;;;;;;7.85;6.07;;;;;;;;;;5068258;28;20035;-66
2021/04/18 03:59:03;;;;;;;7.60;5.57;;;;;;;;;;5068016;28;20032;-66
2021/04/18 04:01:29;;;;;;;6.70;5.45;;;;;;;;;;5068075;28;20032;-66
2021/04/18 04:03:54;;;;;;;8.90;5.93;;;;;;;;;;5068140;28;20139;-66
2021/04/18 04:06:20;;;;;;;10.18;5.90;;;;;;;;;;5068576;28;20107;-66
2021/04/18 04:08:45;;;;;;;6.95;6.13;;;;;;;;;;5067794;28;20502;-66
2021/04/18 04:11:10;;;;;;;7.68;5.50;;;;;;;;;;5068349;28;20035;-66
2021/04/18 04:13:36;;;;;;;7.97;5.28;;;;;;;;;;5067255;28;20029;-67
2021/04/18 04:16:01;;;;;;;5.72;4.85;;;;;;;;;;5067808;28;20017;-66
2021/04/18 04:18:26;;;;;;;5.35;4.70;;;;;;;;;;5067513;28;20058;-67
2021/04/18 04:20:51;;;;;;;7.72;5.60;;;;;;;;;;5068009;28;20119;-66
2021/04/18 04:23:17;;;;;;;4.78;4.28;;;;;;;;;;5058522;28;20690;-66
2021/04/18 04:25:42;;;;;;;4.70;3.35;;;;;;;;;;5067257;28;20066;-66
2021/04/18 04:28:07;;;;;;;6.13;4.68;;;;;;;;;;5067528;28;20029;-66
2021/04/18 04:30:33;;;;;;;4.18;2.70;;;;;;;;;;5067896;28;20115;-66
2021/04/18 04:32:59;;;;;;;6.85;4.30;;;;;;;;;;5067809;28;20049;-66
2021/04/18 04:35:24;;;;;;;12.27;5.53;;;;;;;;;;5067945;28;20141;-66
2021/04/18 04:37:49;;;;;;;5.88;4.55;;;;;;;;;;5067479;28;20032;-66
2021/04/18 04:40:15;;;;;;;6.15;4.35;;;;;;;;;;5063454;28;20146;-66
2021/04/18 04:42:40;;;;;;;5.07;4.55;;;;;;;;;;5067995;28;20859;-66
2021/04/18 04:45:06;;;;;;;7.20;4.30;;;;;;;;;;5067685;28;20402;-66
2021/04/18 04:47:31;;;;;;;10.60;4.13;;;;;;;;;;5065961;28;20032;-66
2021/04/18 04:49:57;;;;;;;6.90;4.05;;;;;;;;;;5067297;28;20029;-66
2021/04/18 04:52:22;;;;;;;7.15;3.38;;;;;;;;;;5070719;28;20025;-66
2021/04/18 04:54:47;;;;;;;8.07;3.80;;;;;;;;;;5071508;28;20040;-66
2021/04/18 04:57:13;;;;;;;3.17;2.85;;;;;;;;;;5071675;28;20044;-66
2021/04/18 04:59:38;;;;;;;3.35;3.05;;;;;;;;;;5071496;28;20024;-66
2021/04/18 05:02:03;;;;;;;7.63;4.93;;;;;;;;;;5071292;28;20035;-66
2021/04/18 05:04:29;;;;;;;4.55;4.00;;;;;;;;;;5071487;28;20379;-66
2021/04/18 05:06:55;;;;;;;3.70;2.92;;;;;;;;;;5071448;28;20028;-66
2021/04/18 05:09:20;;;;;;;4.25;3.67;;;;;;;;;;5062501;28;20384;-66
2021/04/18 05:11:46;;;;;;;7.97;3.97;;;;;;;;;;5071314;28;20137;-66
2021/04/18 05:14:11;;;;;;;15.30;13.40;;;;;;;;;;5070908;28;20625;-66
2021/04/18 05:16:36;;;;;;;5.78;3.47;;;;;;;;;;5071328;28;20032;-66
2021/04/18 05:19:02;;;;;;;3.35;2.10;;;;;;;;;;5071104;28;20168;-66
2021/04/18 05:21:27;;;;;;;4.05;3.08;;;;;;;;;;5069643;28;20052;-66
2021/04/18 05:23:53;;;;;;;9.43;3.22;;;;;;;;;;5071299;28;20420;-66
2021/04/18 05:26:18;;;;;;;4.70;4.13;;;;;;;;;;5070513;28;20035;-66
2021/04/18 05:28:43;;;;;;;8.23;3.28;;;;;;;;;;5072132;28;20544;-66
2021/04/18 05:31:09;;;;;;;5.47;4.07;;;;;;;;;;5070978;28;20910;-66
2021/04/18 05:33:34;;;;;;;3.17;2.88;;;;;;;;;;5069615;28;20040;-66
2021/04/18 05:35:59;;;;;;;2.95;2.65;;;;;;;;;;5071120;28;20047;-66
2021/04/18 05:38:25;;;;;;;8.85;5.00;;;;;;;;;;5070800;28;20466;-66
2021/04/18 05:40:50;;;;;;;4.03;2.95;;;;;;;;;;5071004;28;20056;-66
2021/04/18 05:43:15;;;;;;;6.43;4.13;;;;;;;;;;5069697;28;20029;-66
2021/04/18 05:45:41;;;;;;;3.72;2.70;;;;;;;;;;5070160;28;20378;-66
2021/04/18 05:48:06;;;;;;;3.35;2.25;;;;;;;;;;5070345;28;20063;-66
2021/04/18 05:50:32;;;;;;;7.65;3.97;;;;;;;;;;5070670;28;20076;-66
2021/04/18 05:52:57;;;;;;;3.50;3.08;;;;;;;;;;5070617;28;20531;-66
2021/04/18 05:55:22;;;;;;;7.78;5.22;;;;;;;;;;5070507;28;20379;-66
2021/04/18 05:57:48;;;;;;;6.47;4.60;;;;;;;;;;5070368;28;20106;-66
2021/04/18 06:00:13;;;;;;;5.25;4.72;;;;;;;;;;5070310;28;20459;-66
2021/04/18 06:02:39;;;;;;;11.07;5.70;;;;;;;;;;5069985;28;20383;-66
2021/04/18 06:05:04;;;;;;;5.38;4.18;;;;;;;;;;5069394;28;20050;-66
2021/04/18 06:07:30;;;;;;;6.10;3.95;;;;;;;;;;5070330;28;20025;-66
2021/04/18 06:09:55;;;;;;;3.60;3.10;;;;;;;;;;5070140;28;20554;-66
2021/04/18 06:12:20;;;;;;;12.27;4.80;;;;;;;;;;5070286;28;20074;-66
2021/04/18 06:14:46;;;;;;;8.27;4.53;;;;;;;;;;5070276;28;20376;-67
2021/04/18 06:17:11;;;;;;;7.93;4.78;;;;;;;;;;5069754;28;20447;-66
2021/04/18 06:19:36;;;;;;;7.07;6.45;;;;;;;;;;5069862;28;20103;-66
2021/04/18 06:22:01;;;;;;;10.45;8.02;;;;;;;;;;5069942;28;20093;-66
2021/04/18 06:24:27;;;;;;;10.68;8.05;;;;;;;;;;5070106;28;20021;-66
2021/04/18 06:26:52;;;;;;;10.10;9.02;;;;;;;;;;5070381;28;20051;-66
2021/04/18 06:29:17;;;;;;;6.93;5.60;;;;;;;;;;5070009;28;20035;-66
2021/04/18 06:31:43;;;;;;;10.88;7.68;;;;;;;;;;5070059;28;20111;-66
2021/04/18 06:34:09;;;;;;;12.63;9.43;;;;;;;;;;5069447;28;20041;-66
2021/04/18 06:36:34;;;;;;;13.82;11.68;;;;;;;;;;5070245;28;20209;-66
2021/04/18 06:38:59;;;;;;;15.55;11.98;;;;;;;;;;5070174;28;20441;-66
2021/04/18 06:41:25;;;;;;;12.45;11.07;;;;;;;;;;5073057;28;20032;-66
2021/04/18 06:43:51;;;;;;;11.70;9.18;;;;;;;;;;5069662;28;20029;-66
2021/04/18 06:46:17;;;;;;;9.90;7.95;;;;;;;;;;5069845;28;20032;-66
2021/04/18 06:48:44;;;;;;;12.07;10.27;;;;;;;;;;5069271;28;20070;-66
2021/04/18 06:51:09;;;;;;;12.52;9.85;;;;;;;;;;5069326;28;20111;-66
2021/04/18 06:53:34;;;;;;;9.77;8.07;;;;;;;;;;5068886;28;20585;-66
2021/04/18 06:56:04;;;;;;;13.98;9.15;;;;;;;;;;5067560;28;20071;-65
2021/04/18 06:58:29;;;;;;;13.73;8.50;;;;;;;;;;5068245;28;20032;-65
2021/04/18 07:00:54;;;;;;;8.40;5.30;;;;;;;;;;5066898;28;20662;-65
2021/04/18 07:03:22;;;;;;;9.10;5.22;;;;;;;;;;5068005;28;20036;-66
2021/04/18 07:05:50;;;;;;;16.08;5.85;;;;;;;;;;5068237;28;20046;-66
2021/04/18 07:08:18;;;;;;;7.00;5.72;;;;;;;;;;5063115;28;20466;-66
2021/04/18 07:10:43;;;;;;;15.90;7.50;;;;;;;;;;5068339;28;20028;-61
2021/04/18 07:13:09;;;;;;;8.13;7.10;;;;;;;;;;5069148;28;20035;-61
2021/04/18 07:15:41;;;;;;;10.43;9.23;;;;;;;;;;5069007;28;20048;-62
2021/04/18 07:18:07;;;;;;;8.32;7.25;;;;;;;;;;5068228;28;20429;-66
2021/04/18 07:20:33;;;;;;;9.57;7.20;;;;;;;;;;5068015;28;20176;-66
2021/04/18 07:23:18;;;;;;;4.68;4.22;;;;;;;;;;5067856;28;20794;-66
2021/04/18 07:25:43;;;;;;;4.63;3.22;;;;;;;;;;5056618;28;20103;-66
2021/04/18 07:28:20;;;;;;;15.55;4.60;;;;;;;;;;5067320;28;20028;-66
2021/04/18 07:30:46;;;;;;;6.68;3.60;;;;;;;;;;5063442;28;20030;-66
2021/04/18 07:33:12;;;;;;;5.75;3.47;;;;;;;;;;5067768;28;20097;-66
2021/04/18 07:35:38;;;;;;;12.98;7.53;;;;;;;;;;5068034;28;20922;-66
2021/04/18 07:38:12;;;;;;;10.90;8.18;;;;;;;;;;5065616;28;20029;-66
2021/04/18 07:40:38;;;;;;;16.60;5.35;;;;;;;;;;5064365;28;20036;-66
2021/04/18 07:43:06;;;;;;;10.05;5.75;;;;;;;;;;5067198;28;20028;-66
2021/04/18 07:45:32;;;;;;;13.63;6.55;;;;;;;;;;5066961;28;20032;-66
2021/04/18 07:47:58;;;;;;;7.65;5.38;;;;;;;;;;5067416;28;20039;-65
2021/04/18 07:50:24;;;;;;;7.82;5.25;;;;;;;;;;5067706;28;20055;-66
2021/04/18 07:52:49;;;;;;;7.50;5.38;;;;;;;;;;5067007;28;20056;-66
2021/04/18 07:55:16;;;;;;;10.75;6.50;;;;;;;;;;5067298;28;20022;-66
2021/04/18 07:57:41;;;;;;;17.92;5.78;;;;;;;;;;5064165;28;20383;-66
2021/04/18 08:00:07;;;;;;;14.48;6.13;;;;;;;;;;5067241;28;20024;-66
2021/04/18 08:02:33;;;;;;;8.93;3.72;;;;;;;;;;5066873;28;20144;-66
2021/04/18 08:04:59;;;;;;;7.30;3.25;;;;;;;;;;5066515;28;20547;-66
2021/04/18 08:07:24;;;;;;;6.45;5.65;;;;;;;;;;5067064;28;20028;-66
2021/04/18 08:10:08;;;;;;;5.90;5.30;;;;;;;;;;5067023;28;20026;-66
2021/04/18 08:12:34;;;;;;;7.50;3.75;;;;;;;;;;5065873;28;20044;-66
2021/04/18 08:15:11;;;;;;;11.60;3.60;;;;;;;;;;5066608;28;20055;-66
2021/04/18 08:17:56;;;;;;;3.92;3.25;;;;;;;;;;5066623;28;20171;-66
2021/04/18 08:20:33;;;;;;;9.25;8.30;;;;;;;;;;5064603;28;20373;-66
2021/04/18 08:23:04;;;;;;;5.32;3.17;;;;;;;;;;5066297;28;20020;-66
2021/04/18 08:25:29;;;;;;;11.23;4.38;;;;;;;;;;5066065;28;20035;-66
2021/04/18 08:28:00;;;;;;;11.07;5.20;;;;;;;;;;5066505;28;20044;-66
2021/04/18 08:30:26;;;;;;;12.70;8.57;;;;;;;;;;5067204;28;20100;-66
2021/04/18 08:32:52;;;;;;;14.73;8.50;;;;;;;;;;5067636;28;20193;-66
2021/04/18 08:35:19;;;;;;;11.60;9.38;;;;;;;;;;5067758;28;20024;-66
2021/04/18 08:37:44;;;;;;;10.07;7.47;;;;;;;;;;5067591;28;20035;-66
2021/04/18 08:40:10;;;;;;;7.47;4.68;;;;;;;;;;5068144;28;20028;-66
2021/04/18 08:42:37;;;;;;;15.82;10.65;;;;;;;;;;5066680;28;20721;-66
2021/04/18 08:45:04;;;;;;;23.40;10.77;;;;;;;;;;5066458;28;20429;-66
2021/04/18 08:47:30;;;;;;;8.98;4.20;;;;;;;;;;5067021;28;20029;-66
2021/04/18 08:50:04;;;;;;;4.18;3.40;;;;;;;;;;5067562;28;20020;-66
2021/04/18 08:52:32;;;;;;;12.23;2.75;;;;;;;;;;5069267;28;20488;-66
2021/04/18 08:55:01;;;;;;;4.95;3.40;;;;;;;;;;5067437;28;20078;-66
2021/04/18 08:57:28;;;;;;;2.60;2.08;;;;;;;;;;5066684;28;20161;-66
2021/04/18 08:59:56;;;;;;;4.28;3.05;;;;;;;;;;5067238;28;20524;-65
2021/04/18 09:02:22;;;;;;;16.02;8.60;;;;;;;;;;5065369;28;20471;-66
2021/04/18 09:04:48;;;;;;;13.15;7.28;;;;;;;;;;5066453;28;20025;-65
2021/04/18 09:07:15;;;;;;;4.70;2.67;;;;;;;;;;5067358;28;20056;-65
2021/04/18 09:09:40;;;;;;;13.50;5.03;;;;;;;;;;5067549;28;20023;-66
2021/04/18 09:12:06;;;;;;;4.15;2.97;;;;;;;;;;5067345;28;20024;-66
2021/04/18 09:14:35;;;;;;;7.30;3.25;;;;;;;;;;5067547;28;20028;-66
2021/04/18 09:17:08;;;;;;;12.32;9.23;;;;;;;;;;5067072;28;21307;-66
2021/04/18 09:19:33;;;;;;;7.35;5.65;;;;;;;;;;5069498;28;20020;-66
2021/04/18 09:22:17;;;;;;;6.95;3.85;;;;;;;;;;5066908;28;20028;-66
2021/04/18 09:24:43;;;;;;;3.13;1.90;;;;;;;;;;5066057;28;20033;-66
2021/04/18 09:27:13;;;;;;;20.60;13.27;;;;;;;;;;5067381;28;20082;-66
2021/04/18 09:29:40;;;;;;;19.45;15.07;;;;;;;;;;5067077;28;20024;-66
2021/04/18 09:32:07;;;;;;;25.13;13.38;;;;;;;;;;5070976;28;20442;-66
2021/04/18 09:34:33;;;;;;;21.45;14.52;;;;;;;;;;5067202;28;20048;-66
2021/04/18 09:37:00;;;;;;;13.95;6.43;;;;;;;;;;5067123;28;20056;-66
2021/04/18 09:39:29;;;;;;;5.75;4.18;;;;;;;;;;5067989;28;20436;-67
2021/04/18 09:41:55;;;;;;;6.75;4.30;;;;;;;;;;5071070;28;20043;-66
2021/04/18 09:44:29;;;;;;;7.78;4.45;;;;;;;;;;5070809;28;20033;-67
2021/04/18 09:46:55;;;;;;;3.42;2.78;;;;;;;;;;5068644;28;20028;-66
2021/04/18 09:49:21;;;;;;;10.38;3.28;;;;;;;;;;5070594;28;20040;-66
2021/04/18 09:51:52;;;;;;;11.70;4.15;;;;;;;;;;5071026;28;20021;-66
2021/04/18 09:54:25;;;;;;;6.75;4.72;;;;;;;;;;5070573;28;20035;-66
2021/04/18 09:57:09;;;;;;;10.82;4.30;;;;;;;;;;5070784;28;20468;-66
2021/04/18 09:59:34;;;;;;;7.03;4.20;;;;;;;;;;5070519;28;20029;-66
2021/04/18 10:02:07;;;;;;;5.53;3.38;;;;;;;;;;5070446;28;20351;-66
2021/04/18 10:04:33;;;;;;;8.23;1.63;;;;;;;;;;5074468;28;20632;-65
2021/04/18 10:06:58;;;;;;;3.45;2.00;;;;;;;;;;5070210;28;20032;-66
2021/04/18 10:09:24;;;;;;;6.25;2.13;;;;;;;;;;5070209;28;20123;-66
2021/04/18 10:11:59;;;;;;;2.60;1.85;;;;;;;;;;5067811;28;20039;-65
2021/04/18 10:14:25;;;;;;;2.08;1.08;;;;;;;;;;5070661;28;20107;-66
2021/04/18 10:16:50;;;;;;;4.93;2.70;;;;;;;;;;5070628;28;20116;-66
2021/04/18 10:19:17;;;;;;;2.28;1.40;;;;;;;;;;5072238;28;20106;-66
2021/04/18 10:22:03;;;;;;;3.38;1.60;;;;;;;;;;5070240;28;20037;-62
2021/04/18 10:24:31;;;;;;;8.25;1.85;;;;;;;;;;5069425;28;20036;-62
2021/04/18 10:26:56;;;;;;;8.32;7.47;;;;;;;;;;5069402;28;20028;-61
2021/04/18 10:29:21;;;;;;;5.03;2.50;;;;;;;;;;5069884;28;20069;-61
2021/04/18 10:31:46;;;;;;;3.90;2.58;;;;;;;;;;5069937;28;20028;-62
2021/04/18 10:34:12;;;;;;;3.72;2.83;;;;;;;;;;5069928;28;20478;-62
2021/04/18 10:36:37;;;;;;;5.40;2.67;;;;;;;;;;5070157;28;20066;-61
2021/04/18 10:39:03;;;;;;;12.90;4.97;;;;;;;;;;5068402;28;20071;-63
2021/04/18 10:41:28;;;;;;;1.98;1.63;;;;;;;;;;5069828;28;20056;-63
2021/04/18 10:43:53;;;;;;;3.47;1.75;;;;;;;;;;5069573;28;20025;-62
2021/04/18 10:46:19;;;;;;;4.13;1.65;;;;;;;;;;5069796;28;20063;-63
2021/04/18 10:48:44;;;;;;;2.20;1.42;;;;;;;;;;5069438;28;20383;-62
2021/04/18 10:51:09;;;;;;;4.15;2.75;;;;;;;;;;5070418;28;20024;-62
2021/04/18 10:53:34;;;;;;;3.42;1.92;;;;;;;;;;5069276;28;20467;-63
2021/04/18 10:56:00;;;;;;;2.85;1.45;;;;;;;;;;5069533;28;20028;-63
2021/04/18 10:58:25;;;;;;;2.88;2.30;;;;;;;;;;5069354;28;20728;-64
2021/04/18 11:00:50;;;;;;;3.08;2.42;;;;;;;;;;5069177;28;20060;-63
2021/04/18 11:03:16;;;;;;;2.45;1.63;;;;;;;;;;5069422;28;20031;-63
2021/04/18 11:05:41;;;;;;;4.97;3.03;;;;;;;;;;5069700;28;20425;-63
2021/04/18 11:08:08;;;;;;;15.32;9.52;;;;;;;;;;5069121;28;20040;-63
2021/04/18 11:10:33;;;;;;;3.28;2.63;;;;;;;;;;5068881;28;20456;-63
2021/04/18 11:12:58;;;;;;;3.28;2.42;;;;;;;;;;5068870;28;20053;-62
2021/04/18 11:15:24;;;;;;;3.83;2.50;;;;;;;;;;5069002;28;20063;-62
2021/04/18 11:17:49;;;;;;;5.40;2.28;;;;;;;;;;5070834;28;20139;-63
2021/04/18 11:20:15;;;;;;;3.63;2.03;;;;;;;;;;5068679;28;20463;-63
2021/04/18 11:22:40;;;;;;;3.38;1.60;;;;;;;;;;5068558;28;20051;-64
2021/04/18 11:25:06;;;;;;;4.32;1.90;;;;;;;;;;5068800;28;20040;-63
2021/04/18 11:27:31;;;;;;;4.22;1.10;;;;;;;;;;5060822;28;20032;-62
2021/04/18 11:29:57;;;;;;;1.52;0.90;;;;;;;;;;5068779;28;20028;-63
2021/04/18 11:32:23;;;;;;;3.00;1.45;;;;;;;;;;5068819;28;20618;-63
2021/04/18 11:34:48;;;;;;;3.92;1.88;;;;;;;;;;5066867;28;20019;-62
2021/04/18 11:37:14;;;;;;;3.38;1.73;;;;;;;;;;5067345;28;20479;-63
2021/04/18 11:39:40;;;;;;;1.48;0.88;;;;;;;;;;5068769;28;20054;-63
2021/04/18 11:42:06;;;;;;;1.52;1.02;;;;;;;;;;5068372;28;20032;-62
2021/04/18 11:44:31;;;;;;;4.45;2.10;;;;;;;;;;5068584;28;20026;-62
2021/04/18 11:46:56;;;;;;;11.35;2.15;;;;;;;;;;5067457;28;20039;-63
2021/04/18 11:49:22;;;;;;;7.22;1.27;;;;;;;;;;5068560;28;20471;-62
2021/04/18 11:51:48;;;;;;;1.63;1.23;;;;;;;;;;5068057;28;20776;-63
2021/04/18 11:54:13;;;;;;;1.60;1.45;;;;;;;;;;5067713;28;20134;-63
2021/04/18 11:56:39;;;;;;;1.83;1.25;;;;;;;;;;5068594;28;20025;-63
2021/04/18 11:59:05;;;;;;;3.33;1.98;;;;;;;;;;5068075;28;20112;-62
2021/04/18 12:01:30;;;;;;;4.28;1.90;;;;;;;;;;5067930;28;20033;-63
2021/04/18 12:03:56;;;;;;;8.13;1.95;;;;;;;;;;5068266;28;20086;-63
2021/04/18 12:06:21;;;;;;;2.17;0.80;;;;;;;;;;5067829;28;20124;-63
2021/04/18 12:08:47;;;;;;;2.33;1.02;;;;;;;;;;5067934;28;20104;-63
2021/04/18 12:11:12;;;;;;;4.45;1.75;;;;;;;;;;5067682;28;20044;-62
2021/04/18 12:13:37;;;;;;;2.15;1.75;;;;;;;;;;5068139;28;20028;-63
2021/04/18 12:16:03;;;;;;;2.38;1.70;;;;;;;;;;5066616;28;20021;-63
2021/04/18 12:18:28;;;;;;;2.92;1.55;;;;;;;;;;5067517;28;20063;-61
2021/04/18 12:20:54;;;;;;;4.05;1.65;;;;;;;;;;5066641;28;20646;-60
2021/04/18 12:23:19;;;;;;;1.30;0.95;;;;;;;;;;5068343;28;20032;-61
2021/04/18 12:25:45;;;;;;;3.28;1.40;;;;;;;;;;5068142;28;20470;-62
2021/04/18 12:28:11;;;;;;;2.38;1.50;;;;;;;;;;5068127;28;20060;-63
2021/04/18 12:30:37;;;;;;;1.05;0.70;;;;;;;;;;5067517;28;20040;-64
2021/04/18 12:33:02;;;;;;;3.65;1.98;;;;;;;;;;5067063;28;20028;-63
2021/04/18 12:35:27;;;;;;;11.20;1.17;;;;;;;;;;5065863;28;20455;-65
2021/04/18 12:37:53;;;;;;;1.33;0.85;;;;;;;;;;5067542;28;20152;-65
2021/04/18 12:40:18;;;;;;;5.93;1.70;;;;;;;;;;5067587;28;20021;-65
2021/04/18 12:42:44;;;;;;;9.88;2.08;;;;;;;;;;5066827;28;20064;-65
2021/04/18 12:45:10;;;;;;;6.97;2.38;;;;;;;;;;5067597;28;20111;-65
2021/04/18 12:47:35;;;;;;;1.60;1.20;;;;;;;;;;5064413;28;20043;-65
2021/04/18 12:50:01;;;;;;;2.42;1.38;;;;;;;;;;5066808;28;20105;-66
2021/04/18 12:52:26;;;;;;;1.73;0.80;;;;;;;;;;5068849;28;20063;-65
2021/04/18 12:54:51;;;;;;;2.65;1.25;;;;;;;;;;5066864;28;20970;-65
2021/04/18 12:57:17;;;;;;;4.10;1.35;;;;;;;;;;5066077;28;21437;-65
2021/04/18 12:59:43;;;;;;;1.42;0.80;;;;;;;;;;5064100;28;20013;-66
2021/04/18 13:02:09;;;;;;;2.20;1.30;;;;;;;;;;5067122;28;20044;-65
2021/04/18 13:04:34;;;;;;;2.00;1.63;;;;;;;;;;5067852;28;20024;-65
2021/04/18 13:06:59;;;;;;;5.50;5.00;;;;;;;;;;5067863;28;20061;-65
2021/04/18 13:09:25;;;;;;;1.95;1.52;;;;;;;;;;5068034;28;20077;-65
2021/04/18 13:11:50;;;;;;;3.05;2.20;;;;;;;;;;5066868;28;20066;-69
2021/04/18 13:14:15;;;;;;;2.25;1.38;;;;;;;;;;5069308;28;20828;-69
2021/04/18 13:16:41;;;;;;;2.85;1.30;;;;;;;;;;5070818;28;20036;-74
2021/04/18 13:19:06;;;;;;;3.08;1.20;;;;;;;;;;5073229;28;20102;-62
2021/04/18 13:21:31;;;;;;;1.42;0.95;;;;;;;;;;5071063;28;20024;-62
2021/04/18 13:23:57;;;;;;;1.83;1.10;;;;;;;;;;5071653;28;20052;-65
2021/04/18 13:26:24;;;;;;;2.63;1.60;;;;;;;;;;5071273;28;20040;-64
2021/04/18 13:28:49;;;;;;;2.65;1.95;;;;;;;;;;5071290;28;20056;-75
2021/04/18 13:31:14;;;;;;;49.42;44.35;;;;;;;;;;5073373;28;20712;-76
2021/04/18 13:33:40;;;;;;;15.02;12.75;;;;;;;;;;5071349;28;20052;-76
2021/04/18 13:36:05;;;;;;;21.45;19.30;;;;;;;;;;5070404;28;20070;-75
2021/04/18 13:38:30;;;;;;;7.68;6.93;;;;;;;;;;5066817;28;20068;-76
2021/04/18 13:40:57;;;;;;;7.57;3.22;;;;;;;;;;5071281;28;20111;-73
2021/04/18 13:43:22;;;;;;;3.17;2.38;;;;;;;;;;5067345;28;20619;-76
2021/04/18 13:45:48;;;;;;;10.45;3.78;;;;;;;;;;5070531;28;20032;-69
2021/04/18 13:48:13;;;;;;;4.28;2.05;;;;;;;;;;5070757;28;20031;-69
2021/04/18 13:50:38;;;;;;;4.50;2.75;;;;;;;;;;5068633;28;20481;-63
2021/04/18 13:53:04;;;;;;;4.95;2.83;;;;;;;;;;5070122;28;20063;-68
2021/04/18 13:55:29;;;;;;;4.53;2.50;;;;;;;;;;5071123;28;20078;-68
2021/04/18 13:57:54;;;;;;;3.45;2.40;;;;;;;;;;5071037;28;20494;-75
2021/04/18 14:00:20;;;;;;;7.25;3.00;;;;;;;;;;5070832;28;20063;-76
2021/04/18 14:02:46;;;;;;;4.07;2.70;;;;;;;;;;5071831;28;20028;-65
2021/04/18 14:05:12;;;;;;;3.90;2.10;;;;;;;;;;5074151;28;20070;-68
2021/04/18 14:07:38;;;;;;;2.47;2.00;;;;;;;;;;5071818;28;20032;-68
2021/04/18 14:10:04;;;;;;;3.70;2.20;;;;;;;;;;5071903;28;20142;-67
2021/04/18 14:12:29;;;;;;;3.03;1.98;;;;;;;;;;5071252;28;20075;-75
2021/04/18 14:14:55;;;;;;;12.50;2.65;;;;;;;;;;5067399;28;20054;-65
2021/04/18 14:17:20;;;;;;;4.63;2.70;;;;;;;;;;5070835;28;20056;-62
2021/04/18 14:19:45;;;;;;;2.22;1.75;;;;;;;;;;5070370;28;20071;-69
2021/04/18 14:22:11;;;;;;;3.90;2.50;;;;;;;;;;5070027;28;20032;-65
2021/04/18 14:24:36;;;;;;;3.22;2.65;;;;;;;;;;5069610;28;20028;-67
2021/04/18 14:27:02;;;;;;;4.18;2.38;;;;;;;;;;5068850;28;20024;-67
2021/04/18 14:29:27;;;;;;;7.13;2.78;;;;;;;;;;5070066;28;20505;-61
2021/04/18 14:31:53;;;;;;;2.05;1.73;;;;;;;;;;5068268;28;20494;-61
2021/04/18 14:34:18;;;;;;;6.05;2.58;;;;;;;;;;5068438;28;20464;-61